Accueil
METAR-TAF:

METAR-TAF

Aéroports :

Cazaux, France

Base aérienne 120 Cazaux

latitude: 44-32N, longitude: 001-08W, altitude: 25 m

Observation

Le bulletin a été fait il y a 32 minutes, à 00:30 UTC
Vent 5 kt de nord
Température 13°C
Humidité 94%
Pression 1021 hPa
Visibilité 10 km ou plus
Ciel couvert à une hauteur de 3100 ft

METAR: LFBC 240030Z AUTO 01005KT 9999 OVC031 13/12 Q1021

Heure: 03:02 (01:02 UTC)

Prévision

Le bulletin a été fait il y a 5 heures et 2 minutes, à 20:00 UTC
Prévision valable du 23 à 21 UTC au 24 à 21 UTC
Vent 5 kt de nord-ouest
Visibilité 10 km ou plus
Nuages fragmentés à une hauteur de 2000 ft

TAF: LFBC 232000Z 2321/2421 31005KT 9999 BKN020

Observations et prévisions météorologiques de plus de 4000 aéroports (messages METAR et TAF).

Les stations disponibles sont représentées par des disques jaunes et rouges sur la carte.

Passer la souris dessus pour voir le nom de la station.

Cliquer dessus pour voir les observations et prévisions météorologiques.

Pour changer de carte: cliquez sur les boutons verts avec une croix noire pour zoomer, sur le bouton vert avec un tiret pour effectuer un zoom arrière, ou sur les flèches vertes pour les cartes adjacentes.


METAR-TAF: